Time;durP1;ratioP1;P1;durP2;ratioP2;P2;SDS_P1;SDS_P2;PMS_P1;PMS_P2;Temp;Humidity;BMP_temperature;BMP_pressure;BME280_temperature;BME280_humidity;BME280_pressure;Samples;Min_cycle;Max_cycle;Signal;HPM_P1;HPM_P2
2021/07/22 00:00:02;;;;;;;;;;;;;;;15.50;72.72;100009.47;4973616;28;19918;-61
2021/07/22 00:02:27;;;;;;;;;;;;;;;15.45;73.02;100012.09;4973957;28;20414;-61
2021/07/22 00:04:56;;;;;;;;;;;;;;;15.38;73.54;100004.22;4974166;28;19917;-62
2021/07/22 00:07:21;;;;;;;;;;;;;;;15.34;74.33;100010.41;4974692;28;20316;-61
2021/07/22 00:09:49;;;;;;;;;;;;;;;15.46;72.98;99997.56;4975171;28;19921;-61
2021/07/22 00:12:14;;;;;;;;;;;;;;;15.53;72.50;100003.56;4974658;28;19925;-61
2021/07/22 00:14:44;;;;;;;;;;;;;;;15.47;72.51;100004.56;4975057;28;19921;-61
2021/07/22 00:17:09;;;;;;;;;;;;;;;15.32;73.40;100000.66;4974571;28;20320;-61
2021/07/22 00:19:39;;;;;;;;;;;;;;;15.20;74.66;100000.00;4975261;28;19914;-61
2021/07/22 00:22:04;;;;;;;;;;;;;;;15.15;74.14;99991.84;4974459;28;19918;-61
2021/07/22 00:24:35;;;;;;;;;;;;;;;14.97;75.01;100002.97;4974952;28;19921;-61
2021/07/22 00:27:01;;;;;;;;;;;;;;;15.00;76.37;100002.47;4974480;28;19925;-61
2021/07/22 00:29:32;;;;;;;;;;;;;;;14.96;75.24;100002.16;4974695;28;19914;-61
2021/07/22 00:31:58;;;;;;;;;;;;;;;15.04;75.33;99998.19;4974456;28;20004;-61
2021/07/22 00:34:24;;;;;;;;;;;;;;;14.88;75.69;99998.03;4974898;28;19913;-61
2021/07/22 00:36:49;;;;;;;;;;;;;;;14.73;76.22;99997.84;4974503;28;20352;-61
2021/07/22 00:39:20;;;;;;;;;;;;;;;14.75;76.04;100002.97;4977161;28;19968;-61
2021/07/22 00:41:45;;;;;;;;;;;;;;;14.76;76.03;100005.44;4974262;28;19922;-61
2021/07/22 00:44:13;;;;;;;;;;;;;;;14.77;76.19;100001.66;4974620;28;19918;-61
2021/07/22 00:46:38;;;;;;;;;;;;;;;14.72;76.42;99996.19;4974151;28;19918;-61
2021/07/22 00:49:09;;;;;;;;;;;;;;;14.62;76.49;100010.38;4974755;28;19920;-61
2021/07/22 00:51:34;;;;;;;;;;;;;;;14.67;76.64;99998.84;4972630;28;19929;-61
2021/07/22 00:54:06;;;;;;;;;;;;;;;14.57;77.62;100002.22;4974562;28;20302;-61
2021/07/22 00:56:32;;;;;;;;;;;;;;;14.50;77.09;100000.72;4974000;28;19917;-62
2021/07/22 00:58:58;;;;;;;;;;;;;;;14.73;76.02;99989.75;4974436;28;20269;-61
2021/07/22 01:01:24;;;;;;;;;;;;;;;14.55;77.11;99995.44;4974019;28;19929;-61
2021/07/22 01:03:54;;;;;;;;;;;;;;;14.63;76.80;99989.63;4974502;28;19914;-61
2021/07/22 01:06:19;;;;;;;;;;;;;;;14.62;76.92;99993.38;4974392;28;19918;-61
2021/07/22 01:08:50;;;;;;;;;;;;;;;14.44;77.46;99992.56;4978182;28;19921;-61
2021/07/22 01:11:15;;;;;;;;;;;;;;;14.49;77.77;99999.13;4977880;28;19918;-61
2021/07/22 01:13:43;;;;;;;;;;;;;;;14.14;79.21;99986.75;4978201;28;19921;-61
2021/07/22 01:16:09;;;;;;;;;;;;;;;14.03;79.19;99986.59;4977981;28;20285;-61
2021/07/22 01:18:38;;;;;;;;;;;;;;;14.22;78.34;99989.84;4976870;28;19914;-61
2021/07/22 01:21:07;;;;;;;;;;;;;;;14.34;78.01;99987.03;4977889;28;19973;-61
2021/07/22 01:23:36;;;;;;;;;;;;;;;14.21;78.48;99987.41;4977995;28;20361;-62
2021/07/22 01:26:01;;;;;;;;;;;;;;;14.21;78.73;99987.41;4977584;28;20395;-61
2021/07/22 01:28:28;;;;;;;;;;;;;;;14.33;77.61;99984.63;4977847;28;19914;-61
2021/07/22 01:30:56;;;;;;;;;;;;;;;14.32;78.05;99982.97;4977359;28;19922;-61
2021/07/22 01:33:22;;;;;;;;;;;;;;;14.27;77.62;99980.19;4977880;28;19968;-61
2021/07/22 01:35:47;;;;;;;;;;;;;;;14.11;78.04;99981.88;4977396;28;19965;-61
2021/07/22 01:38:18;;;;;;;;;;;;;;;14.10;78.55;99977.53;4977835;28;19925;-61
2021/07/22 01:40:43;;;;;;;;;;;;;;;14.20;78.18;99980.38;4977371;28;20012;-61
2021/07/22 01:43:12;;;;;;;;;;;;;;;14.14;78.40;99982.19;4977713;28;19949;-61
2021/07/22 01:45:37;;;;;;;;;;;;;;;14.13;78.31;99982.44;4977224;28;19918;-61
2021/07/22 01:48:07;;;;;;;;;;;;;;;14.15;78.25;99980.28;4977576;28;19918;-61
2021/07/22 01:50:32;;;;;;;;;;;;;;;14.07;78.17;99975.31;4977051;28;20237;-61
2021/07/22 01:53:03;;;;;;;;;;;;;;;13.93;78.86;99977.56;4977501;28;20317;-61
2021/07/22 01:55:28;;;;;;;;;;;;;;;14.05;78.88;99980.94;4977373;28;19922;-61
2021/07/22 01:57:59;;;;;;;;;;;;;;;13.92;79.31;99979.41;4960120;28;20065;-61
2021/07/22 02:00:24;;;;;;;;;;;;;;;13.81;79.88;99978.44;4977137;28;20283;-61
2021/07/22 02:02:52;;;;;;;;;;;;;;;13.87;79.77;99982.03;4976240;28;19914;-61
2021/07/22 02:05:18;;;;;;;;;;;;;;;13.89;79.47;99979.91;4976920;28;20000;-61
2021/07/22 02:07:50;;;;;;;;;;;;;;;14.03;79.17;99975.84;4975998;28;19949;-61
2021/07/22 02:10:15;;;;;;;;;;;;;;;14.19;78.55;99978.75;4976846;28;19914;-61
2021/07/22 02:12:45;;;;;;;;;;;;;;;14.22;78.59;99978.25;4977381;28;19914;-61
2021/07/22 02:15:10;;;;;;;;;;;;;;;14.12;79.17;99983.50;4976520;28;20000;-61
2021/07/22 02:17:36;;;;;;;;;;;;;;;14.03;79.75;99981.22;4976916;28;19942;-61
2021/07/22 02:20:02;;;;;;;;;;;;;;;14.07;79.42;99980.72;4975377;28;19914;-61
2021/07/22 02:22:32;;;;;;;;;;;;;;;14.02;79.89;99979.56;4977197;28;19914;-62
2021/07/22 02:24:57;;;;;;;;;;;;;;;13.99;79.23;99974.69;4977164;28;19918;-61
2021/07/22 02:27:27;;;;;;;;;;;;;;;13.94;79.45;99981.88;4975318;28;20338;-61
2021/07/22 02:29:52;;;;;;;;;;;;;;;13.83;78.91;99978.22;4976834;28;20333;-61
2021/07/22 02:32:22;;;;;;;;;;;;;;;13.68;80.51;99975.25;4976498;28;19965;-61
2021/07/22 02:34:47;;;;;;;;;;;;;;;13.79;81.03;99980.56;4977117;28;19914;-61
2021/07/22 02:37:17;;;;;;;;;;;;;;;13.86;81.47;99975.03;4976327;28;19941;-61
2021/07/22 02:39:42;;;;;;;;;;;;;;;13.93;78.79;99975.69;4976813;28;20372;-61
2021/07/22 02:42:26;;;;;;;;;;;;;;;13.98;78.17;99974.94;4978649;28;19941;-61
2021/07/22 02:44:51;;;;;;;;;;;;;;;13.86;79.36;99977.72;4975650;28;20379;-61
2021/07/22 02:47:16;;;;;;;;;;;;;;;13.81;80.03;99983.03;4976258;28;19923;-61
2021/07/22 02:49:42;;;;;;;;;;;;;;;13.75;80.80;99978.59;4975812;28;19918;-61
2021/07/22 02:52:08;;;;;;;;;;;;;;;13.74;81.87;99982.38;4976210;28;19929;-61
2021/07/22 02:54:33;;;;;;;;;;;;;;;14.02;80.15;99974.19;4976426;28;20287;-61
2021/07/22 02:56:59;;;;;;;;;;;;;;;14.06;80.32;99979.91;4975997;28;19923;-61
2021/07/22 02:59:24;;;;;;;;;;;;;;;14.00;80.76;99976.34;4976774;28;19914;-61
2021/07/22 03:01:49;;;;;;;;;;;;;;;13.85;81.48;99978.75;4976056;28;20386;-61
2021/07/22 03:04:15;;;;;;;;;;;;;;;13.90;81.25;99981.53;4976239;28;19918;-61
2021/07/22 03:06:40;;;;;;;;;;;;;;;13.85;81.40;99984.16;4974549;28;19918;-61
2021/07/22 03:09:05;;;;;;;;;;;;;;;13.73;81.59;99980.75;4976340;28;19961;-61
2021/07/22 03:11:30;;;;;;;;;;;;;;;13.76;82.03;99985.66;4966451;28;19981;-61
2021/07/22 03:13:58;;;;;;;;;;;;;;;13.92;81.02;99979.41;4955607;28;19918;-61
2021/07/22 03:16:23;;;;;;;;;;;;;;;13.86;81.10;99983.09;4956455;28;19918;-61
2021/07/22 03:18:49;;;;;;;;;;;;;;;13.78;81.58;99988.91;4956766;28;19922;-61
2021/07/22 03:21:14;;;;;;;;;;;;;;;13.91;81.20;99987.78;4954985;28;19914;-61
2021/07/22 03:23:42;;;;;;;;;;;;;;;13.97;80.94;99987.56;4956785;28;20281;-61
2021/07/22 03:26:07;;;;;;;;;;;;;;;13.97;81.02;99992.16;4971147;28;20369;-61
2021/07/22 03:28:41;;;;;;;;;;;;;;;14.09;80.35;99986.69;4974028;28;20095;-61
2021/07/22 03:31:07;;;;;;;;;;;;;;;14.03;79.67;99986.59;4973654;28;20004;-61
2021/07/22 03:33:35;;;;;;;;;;;;;;;14.00;80.23;99987.09;4975796;28;20010;-61
2021/07/22 03:36:01;;;;;;;;;;;;;;;13.96;78.62;99990.53;4975393;28;19953;-61
2021/07/22 03:38:33;;;;;;;;;;;;;;;13.91;78.62;99988.56;4975719;28;19968;-61
2021/07/22 03:40:58;;;;;;;;;;;;;;;13.74;80.63;99993.16;4974497;28;20431;-61
2021/07/22 03:43:27;;;;;;;;;;;;;;;13.79;80.73;99987.84;4975617;28;19914;-61
2021/07/22 03:45:58;;;;;;;;;;;;;;;13.72;81.10;99985.31;4974761;28;19914;-61
2021/07/22 03:48:24;;;;;;;;;;;;;;;13.68;81.00;99977.94;4975402;28;20020;-61
2021/07/22 03:50:49;;;;;;;;;;;;;;;13.79;81.54;99979.75;4974914;28;20008;-61
2021/07/22 03:53:15;;;;;;;;;;;;;;;13.87;81.09;99975.84;4975176;28;19997;-61
2021/07/22 03:55:40;;;;;;;;;;;;;;;13.56;82.25;99978.84;4973768;28;19977;-61
2021/07/22 03:58:08;;;;;;;;;;;;;;;13.43;83.79;99978.34;4975540;28;19917;-61
2021/07/22 04:00:33;;;;;;;;;;;;;;;13.63;84.33;99980.56;4975108;28;19985;-62
2021/07/22 04:06:01;;;;;;;;;;;;;;;13.72;80.90;99979.09;4974905;28;20369;-61
2021/07/22 04:08:27;;;;;;;;;;;;;;;13.87;80.74;99982.03;4973922;28;19932;-62
2021/07/22 04:10:52;;;;;;;;;;;;;;;13.89;79.81;99985.31;4974749;28;19925;-61
2021/07/22 04:13:17;;;;;;;;;;;;;;;13.89;79.91;99985.31;4975097;28;19918;-61
2021/07/22 04:15:42;;;;;;;;;;;;;;;13.88;79.96;99994.47;4975206;28;19929;-62
2021/07/22 04:18:08;;;;;;;;;;;;;;;13.56;81.62;99984.25;4975096;28;19968;-61
2021/07/22 04:20:33;;;;;;;;;;;;;;;13.36;83.69;99982.00;4973293;28;19932;-61
2021/07/22 04:22:59;;;;;;;;;;;;;;;13.77;83.75;99981.88;4975138;28;20276;-61
2021/07/22 04:25:24;;;;;;;;;;;;;;;14.01;81.61;99986.03;4974467;28;19997;-61
2021/07/22 04:27:49;;;;;;;;;;;;;;;14.10;80.97;99982.91;4975196;28;20020;-61
2021/07/22 04:30:15;;;;;;;;;;;;;;;14.14;80.56;99986.75;4974725;28;20430;-61
2021/07/22 04:32:40;;;;;;;;;;;;;;;14.05;80.24;99988.22;4973720;28;19914;-61
2021/07/22 04:35:08;;;;;;;;;;;;;;;13.79;81.34;99985.97;4974674;28;19914;-61
2021/07/22 04:37:36;;;;;;;;;;;;;;;13.77;81.88;99995.34;4974707;28;19918;-61
2021/07/22 04:40:02;;;;;;;;;;;;;;;13.75;82.24;99995.59;4976615;28;19913;-61
2021/07/22 04:42:27;;;;;;;;;;;;;;;13.77;82.14;99995.34;4974662;28;19923;-61
2021/07/22 04:44:53;;;;;;;;;;;;;;;13.84;83.26;99995.19;4974664;28;19922;-61
2021/07/22 04:47:18;;;;;;;;;;;;;;;13.95;81.33;99994.28;4974211;28;19972;-61
2021/07/22 04:49:43;;;;;;;;;;;;;;;14.07;80.73;99996.88;4974373;28;19914;-61
2021/07/22 04:52:08;;;;;;;;;;;;;;;14.09;80.34;99995.59;4974274;28;19918;-61
2021/07/22 04:54:34;;;;;;;;;;;;;;;14.40;79.77;100002.25;4973983;28;19914;-61
2021/07/22 04:56:59;;;;;;;;;;;;;;;13.98;81.17;99994.63;4973823;28;19925;-61
2021/07/22 04:59:24;;;;;;;;;;;;;;;14.12;81.82;99994.28;4974697;28;19918;-61
2021/07/22 05:01:50;;;;;;;;;;;;;;;14.76;79.39;100002.72;4974018;28;19925;-61
2021/07/22 05:04:18;;;;;;;;;;;;;;;14.86;79.00;100005.56;4974548;28;19921;-61
2021/07/22 05:06:43;;;;;;;;;;;;;;;15.21;78.26;99996.22;4974137;28;20012;-61
2021/07/22 05:09:09;;;;;;;;;;;;;;;15.42;75.82;100002.63;4973989;28;20001;-61
2021/07/22 05:11:34;;;;;;;;;;;;;;;15.32;77.13;99997.97;4974059;28;20292;-61
2021/07/22 05:14:06;;;;;;;;;;;;;;;15.91;74.21;99994.44;4974358;28;19921;-61
2021/07/22 05:16:31;;;;;;;;;;;;;;;16.27;73.09;99999.28;4973998;28;20357;-62
2021/07/22 05:18:59;;;;;;;;;;;;;;;17.70;68.00;100002.50;4974433;28;19921;-61
2021/07/22 05:21:24;;;;;;;;;;;;;;;17.67;68.08;100003.03;4974297;28;19914;-62
2021/07/22 05:23:52;;;;;;;;;;;;;;;18.75;63.36;100017.28;4974379;28;19920;-61
2021/07/22 05:26:17;;;;;;;;;;;;;;;18.61;63.42;100011.59;4972611;28;19918;-61
2021/07/22 05:28:49;;;;;;;;;;;;;;;19.10;62.09;100013.63;4974155;28;20267;-62
2021/07/22 05:31:14;;;;;;;;;;;;;;;19.32;61.06;100012.38;4973823;28;19918;-62
2021/07/22 05:33:45;;;;;;;;;;;;;;;20.34;58.05;100014.28;4973093;28;19917;-61
2021/07/22 05:36:10;;;;;;;;;;;;;;;19.98;59.81;100014.66;4973828;28;20314;-62
2021/07/22 05:38:38;;;;;;;;;;;;;;;20.75;56.84;100013.09;4974201;28;20009;-62
2021/07/22 05:41:07;;;;;;;;;;;;;;;19.72;60.01;100007.78;4973659;28;19918;-60
2021/07/22 05:43:33;;;;;;;;;;;;;;;20.59;57.98;100009.72;4973856;28;20364;-61
2021/07/22 05:45:58;;;;;;;;;;;;;;;22.36;52.93;100014.75;4973730;28;20035;-61
2021/07/22 05:48:29;;;;;;;;;;;;;;;24.26;47.87;100022.28;4974223;28;20287;-60
2021/07/22 05:50:58;;;;;;;;;;;;;;;24.49;47.17;100020.34;4973368;28;20268;-60
2021/07/22 05:53:23;;;;;;;;;;;;;;;24.14;47.74;100019.31;4975660;28;20411;-60
2021/07/22 05:55:48;;;;;;;;;;;;;;;25.04;45.94;100019.06;4975885;28;19922;-61
2021/07/22 05:58:17;;;;;;;;;;;;;;;24.74;44.74;100019.63;4977533;28;20264;-61
2021/07/22 06:00:42;;;;;;;;;;;;;;;24.78;45.10;100027.22;4977076;28;19925;-61
2021/07/22 06:03:13;;;;;;;;;;;;;;;25.52;42.17;100023.66;4977819;28;20009;-61
2021/07/22 06:05:38;;;;;;;;;;;;;;;25.05;43.93;100018.72;4977056;28;19918;-61
2021/07/22 06:08:06;;;;;;;;;;;;;;;26.08;41.75;100021.00;4977318;28;19914;-61
2021/07/22 06:10:32;;;;;;;;;;;;;;;25.06;44.13;100017.63;4976894;28;19918;-61
2021/07/22 06:13:03;;;;;;;;;;;;;;;25.60;42.37;100020.88;4977554;28;20009;-61
2021/07/22 06:15:28;;;;;;;;;;;;;;;26.28;40.52;100028.53;4976764;28;19976;-63
2021/07/22 06:17:56;;;;;;;;;;;;;;;26.41;41.42;100027.53;4977156;28;19914;-61
2021/07/22 06:20:21;;;;;;;;;;;;;;;26.49;41.12;100027.84;4976940;28;19925;-60
2021/07/22 06:22:53;;;;;;;;;;;;;;;27.31;38.81;100034.69;4977453;28;19914;-60
2021/07/22 06:25:18;;;;;;;;;;;;;;;25.63;42.08;100026.84;4977369;28;19914;-60
2021/07/22 06:27:44;;;;;;;;;;;;;;;24.01;46.45;100032.81;4975791;28;19988;-60
2021/07/22 06:30:09;;;;;;;;;;;;;;;24.20;46.41;100026.28;4976272;28;19914;-60
2021/07/22 06:32:41;;;;;;;;;;;;;;;23.66;47.80;100026.22;4977156;28;19914;-60
2021/07/22 06:35:06;;;;;;;;;;;;;;;23.46;48.11;100022.03;4976706;28;19950;-60
2021/07/22 06:37:41;;;;;;;;;;;;;;;23.19;48.46;100031.16;4976998;28;20004;-60
2021/07/22 06:40:07;;;;;;;;;;;;;;;23.01;48.19;100028.25;4976509;28;20009;-60
2021/07/22 06:42:32;;;;;;;;;;;;;;;23.40;48.44;100034.22;4978544;28;19980;-60
2021/07/22 06:44:57;;;;;;;;;;;;;;;25.06;44.58;100031.31;4966662;28;19921;-60
2021/07/22 06:47:26;;;;;;;;;;;;;;;27.39;39.69;100021.22;4956840;28;19926;-60
2021/07/22 06:49:51;;;;;;;;;;;;;;;26.93;40.02;100028.44;4957123;28;19915;-60
2021/07/22 06:52:19;;;;;;;;;;;;;;;28.23;36.78;100032.06;4956861;28;19925;-61
2021/07/22 06:54:45;;;;;;;;;;;;;;;26.70;40.51;100025.97;4957299;28;19949;-60
2021/07/22 06:57:16;;;;;;;;;;;;;;;28.03;37.63;100029.06;4956775;28;20378;-60
2021/07/22 06:59:41;;;;;;;;;;;;;;;26.71;40.45;100029.53;4957093;28;20337;-61
2021/07/22 07:02:09;;;;;;;;;;;;;;;26.68;40.14;100025.50;4955432;29;19919;-61
2021/07/22 07:04:41;;;;;;;;;;;;;;;25.80;42.42;100024.09;4956071;28;19914;-61
2021/07/22 07:07:06;;;;;;;;;;;;;;;25.96;41.96;100022.50;4975122;28;19917;-61
2021/07/22 07:09:31;;;;;;;;;;;;;;;26.31;41.12;100027.91;4974902;28;19914;-60
2021/07/22 07:11:57;;;;;;;;;;;;;;;28.30;37.60;100027.63;4975779;28;20293;-61
2021/07/22 07:14:22;;;;;;;;;;;;;;;29.16;35.52;100030.44;4976254;28;19965;-60
2021/07/22 07:16:47;;;;;;;;;;;;;;;29.11;35.23;100030.66;4975707;28;20007;-60
2021/07/22 07:19:13;;;;;;;;;;;;;;;27.87;37.59;100034.41;4975058;28;19922;-61
2021/07/22 07:21:38;;;;;;;;;;;;;;;26.95;39.67;100026.97;4975834;28;19914;-60
2021/07/22 07:24:04;;;;;;;;;;;;;;;25.58;42.37;100022.34;4976098;28;19921;-60
2021/07/22 07:26:29;;;;;;;;;;;;;;;25.44;43.18;100022.50;4975580;28;20439;-60
2021/07/22 07:28:55;;;;;;;;;;;;;;;27.58;38.05;100028.97;4958653;28;20351;-60
2021/07/22 07:31:20;;;;;;;;;;;;;;;26.66;39.82;100019.53;4956189;28;19961;-61
2021/07/22 07:33:46;;;;;;;;;;;;;;;27.87;37.69;100022.59;4956569;28;19914;-60
2021/07/22 07:36:11;;;;;;;;;;;;;;;27.60;37.95;100027.50;4954740;29;20392;-60
2021/07/22 07:38:36;;;;;;;;;;;;;;;27.28;37.45;100020.78;4956592;28;19922;-60
2021/07/22 07:41:02;;;;;;;;;;;;;;;26.77;39.75;100019.97;4956109;28;19937;-60
2021/07/22 07:43:27;;;;;;;;;;;;;;;29.67;34.03;100030.75;4956420;28;20400;-60
2021/07/22 07:45:52;;;;;;;;;;;;;;;28.86;35.02;100021.59;4955945;28;20373;-60
2021/07/22 07:48:18;;;;;;;;;;;;;;;28.14;36.75;100024.72;4956233;28;20020;-60
2021/07/22 07:50:43;;;;;;;;;;;;;;;26.82;39.47;100020.56;4955559;28;19930;-60
2021/07/22 07:53:11;;;;;;;;;;;;;;;28.49;35.67;100016.06;4956213;28;20009;-61
2021/07/22 07:55:37;;;;;;;;;;;;;;;28.30;35.97;100021.31;4970595;28;20025;-61
2021/07/22 07:58:02;;;;;;;;;;;;;;;29.13;33.56;100013.75;4956205;28;20424;-61
2021/07/22 08:00:28;;;;;;;;;;;;;;;28.96;33.98;100021.13;4954456;28;19918;-61
2021/07/22 08:02:58;;;;;;;;;;;;;;;29.72;33.11;100013.13;4955963;28;20005;-60
2021/07/22 08:05:23;;;;;;;;;;;;;;;30.62;31.51;100016.25;4955471;28;19962;-60
2021/07/22 08:07:49;;;;;;;;;;;;;;;29.34;33.15;100014.38;4956124;28;19964;-60
2021/07/22 08:10:14;;;;;;;;;;;;;;;29.59;33.82;100008.78;4955692;28;19936;-61
2021/07/22 08:12:39;;;;;;;;;;;;;;;28.42;34.78;100010.28;4955820;28;20361;-61
2021/07/22 08:15:05;;;;;;;;;;;;;;;29.45;34.13;100001.72;4955185;28;19914;-61
2021/07/22 08:17:30;;;;;;;;;;;;;;;30.30;32.04;99999.69;4955573;28;19921;-61
2021/07/22 08:19:58;;;;;;;;;;;;;;;30.41;32.35;100004.69;4955615;28;19970;-61
2021/07/22 08:22:25;;;;;;;;;;;;;;;30.77;31.88;100000.00;4955396;28;19925;-61
2021/07/22 08:24:50;;;;;;;;;;;;;;;29.31;33.59;99993.00;4955812;28;19914;-61
2021/07/22 08:27:23;;;;;;;;;;;;;;;30.11;33.10;100002.31;4955201;28;20312;-61
2021/07/22 08:29:48;;;;;;;;;;;;;;;30.04;33.68;99999.38;4955822;28;19937;-61
2021/07/22 08:32:13;;;;;;;;;;;;;;;30.48;32.39;100004.88;4955194;28;20373;-61
2021/07/22 08:34:39;;;;;;;;;;;;;;;30.72;32.16;99990.81;4955578;28;19989;-61
2021/07/22 08:37:11;;;;;;;;;;;;;;;30.95;30.73;100001.22;4955143;28;19914;-61
2021/07/22 08:39:39;;;;;;;;;;;;;;;29.80;32.26;99992.81;4955823;28;20381;-61
2021/07/22 08:42:05;;;;;;;;;;;;;;;27.24;36.86;99995.91;4955111;28;20462;-61
2021/07/22 08:44:31;;;;;;;;;;;;;;;27.89;35.51;100001.03;4955545;28;19922;-61
2021/07/22 08:46:56;;;;;;;;;;;;;;;27.25;36.55;99989.25;4969850;28;20369;-61
2021/07/22 08:49:22;;;;;;;;;;;;;;;27.83;35.52;99994.94;4961459;28;19950;-61
2021/07/22 08:51:47;;;;;;;;;;;;;;;28.08;35.00;99994.97;4974239;28;19969;-60
2021/07/22 08:54:14;;;;;;;;;;;;;;;28.43;35.40;99992.63;4974803;28;19914;-61
2021/07/22 08:56:39;;;;;;;;;;;;;;;29.54;32.71;99998.00;4974202;28;19918;-61
2021/07/22 08:59:04;;;;;;;;;;;;;;;29.35;33.11;99991.13;4973388;28;19978;-61
2021/07/22 09:01:31;;;;;;;;;;;;;;;29.16;32.21;99991.00;4974114;28;20336;-60
2021/07/22 09:03:59;;;;;;;;;;;;;;;27.81;34.66;99997.19;4974612;28;19914;-61
2021/07/22 09:06:25;;;;;;;;;;;;;;;25.93;38.56;99984.69;4974303;28;20426;-61
2021/07/22 09:08:50;;;;;;;;;;;;;;;25.47;40.15;99983.44;4961645;28;19914;-61
2021/07/22 09:11:15;;;;;;;;;;;;;;;26.60;37.31;99980.41;4954941;28;19927;-61
2021/07/22 09:13:41;;;;;;;;;;;;;;;26.36;37.67;99978.25;4955077;28;20376;-60
2021/07/22 09:16:07;;;;;;;;;;;;;;;27.80;35.12;99980.97;4969262;28;19918;-60
2021/07/22 09:18:36;;;;;;;;;;;;;;;28.18;33.70;99981.56;4955056;28;19919;-60
2021/07/22 09:21:21;;;;;;;;;;;;;;;27.57;34.56;99978.63;4954685;28;19957;-61
2021/07/22 09:24:10;;;;;;;;;;;;;;;27.95;34.04;99975.66;4955045;28;19915;-60
2021/07/22 09:26:36;;;;;;;;;;;;;;;27.98;33.57;99982.44;4954829;28;20068;-60
2021/07/22 09:29:03;;;;;;;;;;;;;;;27.11;34.72;99972.97;4957902;28;19921;-60
2021/07/22 09:31:28;;;;;;;;;;;;;;;27.68;33.89;99974.31;4958533;28;20304;-60
2021/07/22 09:33:54;;;;;;;;;;;;;;;28.16;32.07;99978.34;4958844;28;19914;-61
2021/07/22 09:36:19;;;;;;;;;;;;;;;27.38;32.83;99970.03;4958396;28;19925;-61
2021/07/22 09:38:44;;;;;;;;;;;;;;;29.25;30.65;99961.28;4958613;28;19914;-60
2021/07/22 09:41:19;;;;;;;;;;;;;;;28.38;32.38;99968.00;4958132;28;19942;-60
2021/07/22 09:43:44;;;;;;;;;;;;;;;29.30;30.31;99963.78;4958702;28;19942;-60
2021/07/22 09:46:09;;;;;;;;;;;;;;;29.27;30.43;99964.50;4958289;28;20324;-61
2021/07/22 09:48:35;;;;;;;;;;;;;;;29.72;29.06;99960.63;4958459;28;19922;-61
2021/07/22 09:51:00;;;;;;;;;;;;;;;29.66;27.92;99964.81;4958011;28;19946;-60
2021/07/22 09:53:27;;;;;;;;;;;;;;;28.42;31.00;99963.44;4958160;28;20336;-61
2021/07/22 09:55:54;;;;;;;;;;;;;;;26.45;34.98;99967.22;4958121;28;19997;-61
2021/07/22 09:58:19;;;;;;;;;;;;;;;26.38;35.08;99964.97;4958410;28;20293;-60
2021/07/22 10:00:46;;;;;;;;;;;;;;;27.49;32.77;99949.22;4972754;28;19926;-60
2021/07/22 10:03:15;;;;;;;;;;;;;;;24.83;37.54;99947.56;4973164;28;20024;-61
2021/07/22 10:06:13;;;;;;;;;;;;;;;24.46;38.90;99949.72;4957715;28;19918;-60
2021/07/22 10:08:38;;;;;;;;;;;;;;;23.76;40.04;99959.53;4956664;28;19914;-60
2021/07/22 10:11:04;;;;;;;;;;;;;;;23.30;40.82;99953.22;4957604;28;19922;-60
2021/07/22 10:13:32;;;;;;;;;;;;;;;25.37;35.81;99954.41;4957858;28;20025;-60
2021/07/22 10:15:57;;;;;;;;;;;;;;;25.03;37.72;99955.16;4957402;28;19914;-60
2021/07/22 10:18:23;;;;;;;;;;;;;;;24.77;38.21;99946.91;4972564;28;19914;-60
2021/07/22 10:20:49;;;;;;;;;;;;;;;25.61;36.11;99950.34;4957336;28;19914;-61
2021/07/22 10:23:14;;;;;;;;;;;;;;;26.36;34.65;99947.19;4957764;28;19960;-61
2021/07/22 10:25:39;;;;;;;;;;;;;;;27.17;31.97;99943.31;4957135;28;20440;-60
2021/07/22 10:28:04;;;;;;;;;;;;;;;27.80;32.45;99948.72;4957547;28;19910;-60
2021/07/22 10:30:30;;;;;;;;;;;;;;;28.26;31.03;99937.72;4957271;28;19973;-60
2021/07/22 10:32:56;;;;;;;;;;;;;;;28.91;29.70;99940.56;4972323;28;20440;-60
2021/07/22 10:35:23;;;;;;;;;;;;;;;29.27;28.96;99936.88;4972319;28;19918;-61
2021/07/22 10:38:01;;;;;;;;;;;;;;;28.79;29.51;99944.13;4957533;28;19914;-60
2021/07/22 10:40:42;;;;;;;;;;;;;;;29.24;29.27;99932.06;4956931;28;19920;-61
2021/07/22 10:43:07;;;;;;;;;;;;;;;29.69;28.59;99930.97;4957432;28;20281;-61
2021/07/22 10:45:32;;;;;;;;;;;;;;;29.41;29.79;99925.47;4961371;28;19925;-60
2021/07/22 10:47:57;;;;;;;;;;;;;;;28.93;30.30;99932.69;4977581;28;19922;-61
2021/07/22 10:50:39;;;;;;;;;;;;;;;27.58;31.90;99929.84;4974919;28;19922;-61
2021/07/22 10:53:05;;;;;;;;;;;;;;;26.25;33.71;99924.78;4976580;28;19921;-61
2021/07/22 10:55:42;;;;;;;;;;;;;;;25.41;34.40;99927.13;4976174;28;20001;-61
2021/07/22 10:58:26;;;;;;;;;;;;;;;23.88;37.85;99924.97;4976556;28;19914;-60
2021/07/22 11:00:51;;;;;;;;;;;;;;;23.33;39.01;99921.72;4976121;28;19918;-61
2021/07/22 11:03:40;;;;;;;;;;;;;;;23.67;39.69;99927.41;4976254;28;19921;-61
2021/07/22 11:06:08;;;;;;;;;;;;;;;25.48;36.21;99915.66;4975805;28;19913;-61
2021/07/22 11:08:37;;;;;;;;;;;;;;;25.24;36.46;99916.97;4976442;28;19921;-61
2021/07/22 11:11:02;;;;;;;;;;;;;;;26.25;34.89;99914.59;4975915;28;19918;-61
2021/07/22 11:13:37;;;;;;;;;;;;;;;27.54;32.27;99919.53;4976310;28;19961;-61
2021/07/22 11:16:03;;;;;;;;;;;;;;;28.86;30.01;99916.75;4975779;28;19965;-62
2021/07/22 11:18:43;;;;;;;;;;;;;;;29.18;29.32;99914.97;4976192;28;19914;-61
2021/07/22 11:21:18;;;;;;;;;;;;;;;29.08;30.24;99906.38;4975688;28;19918;-60
2021/07/22 11:24:03;;;;;;;;;;;;;;;29.87;29.22;99907.34;4976246;28;19968;-62
2021/07/22 11:26:31;;;;;;;;;;;;;;;30.24;28.36;99896.06;4975013;28;19944;-61
2021/07/22 11:28:57;;;;;;;;;;;;;;;29.76;29.27;99900.78;4975831;28;19914;-61
2021/07/22 11:31:22;;;;;;;;;;;;;;;28.51;30.73;99906.25;4975550;28;19940;-61
2021/07/22 11:33:47;;;;;;;;;;;;;;;26.30;33.29;99899.88;4974481;28;19951;-62
2021/07/22 11:36:13;;;;;;;;;;;;;;;27.01;33.47;99895.53;4975447;28;19986;-61
2021/07/22 11:38:39;;;;;;;;;;;;;;;27.55;32.36;99898.31;4975859;28;19914;-61
2021/07/22 11:41:11;;;;;;;;;;;;;;;26.46;34.47;99889.94;4975229;28;20376;-61
2021/07/22 11:43:37;;;;;;;;;;;;;;;25.60;35.15;99891.88;4975611;28;19918;-61
2021/07/22 11:46:03;;;;;;;;;;;;;;;25.37;35.05;99893.22;4975054;28;19956;-62
2021/07/22 11:48:28;;;;;;;;;;;;;;;25.91;34.96;99890.88;4975356;28;19957;-61
2021/07/22 11:50:57;;;;;;;;;;;;;;;25.97;34.38;99897.78;4974398;28;19929;-61
2021/07/22 11:53:23;;;;;;;;;;;;;;;25.90;34.66;99888.44;4974234;28;20276;-61
2021/07/22 11:55:48;;;;;;;;;;;;;;;26.73;33.86;99890.56;4973572;28;19925;-61
2021/07/22 11:58:16;;;;;;;;;;;;;;;27.38;31.80;99890.22;4974142;28;20073;-61
2021/07/22 12:00:41;;;;;;;;;;;;;;;27.82;31.00;99890.59;4975260;28;19957;-61
2021/07/22 12:03:07;;;;;;;;;;;;;;;28.29;30.82;99890.16;4974128;28;20000;-61
2021/07/22 12:05:32;;;;;;;;;;;;;;;28.22;31.24;99884.41;4974710;28;19929;-61
2021/07/22 12:08:12;;;;;;;;;;;;;;;28.94;31.70;99885.47;4973869;28;20383;-61
2021/07/22 12:10:37;;;;;;;;;;;;;;;28.85;29.69;99875.72;4974752;28;19918;-61
2021/07/22 12:13:08;;;;;;;;;;;;;;;27.82;30.92;99866.59;4975051;28;19913;-62
2021/07/22 12:15:34;;;;;;;;;;;;;;;28.01;31.79;99874.31;4974777;28;20024;-61
2021/07/22 12:17:59;;;;;;;;;;;;;;;28.00;32.33;99875.44;4973971;28;20380;-61
2021/07/22 12:20:24;;;;;;;;;;;;;;;27.20;33.21;99870.34;4974762;28;19922;-61
2021/07/22 12:22:50;;;;;;;;;;;;;;;27.23;33.60;99873.22;4974989;28;19918;-61
2021/07/22 12:25:16;;;;;;;;;;;;;;;26.78;34.78;99865.63;4973295;28;20320;-61
2021/07/22 12:27:44;;;;;;;;;;;;;;;27.12;33.25;99866.50;4974863;28;20377;-61
2021/07/22 12:30:12;;;;;;;;;;;;;;;27.00;33.77;99863.69;4974648;28;19914;-61
2021/07/22 12:32:45;;;;;;;;;;;;;;;27.08;33.63;99863.63;4974928;28;19914;-61
2021/07/22 12:35:11;;;;;;;;;;;;;;;27.85;31.59;99860.41;4973082;28;19920;-61
2021/07/22 12:37:55;;;;;;;;;;;;;;;27.63;31.38;99861.63;4973403;28;20012;-61
2021/07/22 12:40:39;;;;;;;;;;;;;;;27.74;33.47;99850.97;4976815;28;19926;-61
2021/07/22 12:43:05;;;;;;;;;;;;;;;26.31;34.66;99846.56;4974581;28;19918;-61
2021/07/22 12:45:30;;;;;;;;;;;;;;;26.21;35.18;99846.94;4974160;28;19918;-61